createdAt,value
2023-05-01T00:00:25.741Z,101102.56
2023-05-01T00:03:33.679Z,101099.31
2023-05-01T00:06:39.600Z,101103.69
2023-05-01T00:09:45.196Z,101103.16
2023-05-01T00:12:50.695Z,101112.34
2023-05-01T00:15:56.626Z,101103.25
2023-05-01T00:19:03.723Z,101108.41
2023-05-01T00:22:09.228Z,101095.50
2023-05-01T00:25:14.872Z,101088.50
2023-05-01T00:28:20.648Z,101102.47
2023-05-01T00:31:26.265Z,101101.41
2023-05-01T00:34:32.054Z,101096.81
2023-05-01T00:37:37.860Z,101109.25
2023-05-01T00:40:44.589Z,101113.81
2023-05-01T00:43:50.309Z,101105.25
2023-05-01T00:46:56.908Z,101100.19
2023-05-01T00:50:03.666Z,101104.53
2023-05-01T00:53:08.979Z,101104.00
2023-05-01T00:56:16.064Z,101099.97
2023-05-01T00:59:22.348Z,101104.28
2023-05-01T01:02:27.875Z,101105.38
2023-05-01T01:05:38.587Z,101104.28
2023-05-01T01:09:13.986Z,101105.13
2023-05-01T01:12:27.797Z,101106.16
2023-05-01T01:15:38.708Z,101102.13
2023-05-01T01:19:01.170Z,101100.50
2023-05-01T01:22:13.888Z,101099.69
2023-05-01T01:25:57.433Z,101104.00
2023-05-01T01:29:33.380Z,101106.97
2023-05-01T01:33:24.241Z,101109.91
2023-05-01T01:36:35.854Z,101107.75
2023-05-01T01:39:46.479Z,101114.75
2023-05-01T01:43:08.561Z,101115.78
2023-05-01T01:46:18.192Z,101117.66
2023-05-01T01:49:28.210Z,101112.56
2023-05-01T01:52:35.690Z,101115.22
2023-05-01T01:55:44.007Z,101114.97
2023-05-01T01:58:52.503Z,101116.00
2023-05-01T02:01:59.904Z,101126.78
2023-05-01T02:05:12.168Z,101120.25
2023-05-01T02:08:19.209Z,101126.72
2023-05-01T02:11:26.212Z,101128.88
2023-05-01T02:14:32.198Z,101127.25
2023-05-01T02:17:40.128Z,101130.72
2023-05-01T02:20:46.204Z,101135.28
2023-05-01T02:23:52.041Z,101121.56
2023-05-01T02:27:01.861Z,101124.25
2023-05-01T02:30:08.552Z,101123.69
2023-05-01T02:33:13.741Z,101122.63
2023-05-01T02:36:19.461Z,101125.00
2023-05-01T02:39:25.132Z,101119.09
2023-05-01T02:42:33.358Z,101121.25
2023-05-01T02:45:40.831Z,101118.31
2023-05-01T02:48:48.520Z,101120.47
2023-05-01T02:51:54.287Z,101115.31
2023-05-01T02:55:00.046Z,101111.56
2023-05-01T02:58:05.523Z,101118.00
2023-05-01T03:01:11.761Z,101116.09
2023-05-01T03:04:17.840Z,101111.53
2023-05-01T03:07:23.476Z,101112.06
2023-05-01T03:10:28.772Z,101108.03
2023-05-01T03:13:35.351Z,101099.38
2023-05-01T03:16:41.588Z,101096.16
2023-05-01T03:19:47.112Z,101106.38
2023-05-01T03:22:52.566Z,101101.22
2023-05-01T03:25:57.958Z,101098.28
2023-05-01T03:29:04.094Z,101103.09
2023-05-01T03:32:09.979Z,101098.25
2023-05-01T03:35:16.505Z,101094.72
2023-05-01T03:38:23.277Z,101096.31
2023-05-01T03:41:47.404Z,101096.59
2023-05-01T03:45:03.698Z,101094.47
2023-05-01T03:48:09.396Z,101086.94
2023-05-01T03:51:17.434Z,101090.41
2023-05-01T03:54:24.189Z,101087.47
2023-05-01T03:57:37.861Z,101090.44
2023-05-01T04:00:44.029Z,101082.63
2023-05-01T04:03:49.698Z,101087.44
2023-05-01T04:06:55.637Z,101085.53
2023-05-01T04:10:01.280Z,101083.16
2023-05-01T04:13:07.258Z,101081.75
2023-05-01T04:16:14.519Z,101084.13
2023-05-01T04:19:20.033Z,101086.84
2023-05-01T04:22:30.970Z,101083.34
2023-05-01T04:25:37.267Z,101094.66
2023-05-01T04:28:49.355Z,101089.97
2023-05-01T04:31:58.146Z,101090.03
2023-05-01T04:35:04.971Z,101088.66
2023-05-01T04:38:11.325Z,101091.59
2023-05-01T04:41:18.606Z,101095.63
2023-05-01T04:44:25.836Z,101088.94
2023-05-01T04:47:31.854Z,101095.19
2023-05-01T04:50:37.991Z,101091.75
2023-05-01T04:53:43.308Z,101092.50
2023-05-01T04:56:58.325Z,101104.59
2023-05-01T05:00:04.464Z,101099.50
2023-05-01T05:03:12.516Z,101112.88
2023-05-01T05:06:18.259Z,101109.34
2023-05-01T05:09:24.105Z,101104.06
2023-05-01T05:12:29.355Z,101102.63
2023-05-01T05:15:34.944Z,101110.44
2023-05-01T05:18:41.043Z,101104.97
2023-05-01T05:21:47.261Z,101114.47
2023-05-01T05:25:00.515Z,101108.88
2023-05-01T05:28:05.843Z,101114.78
2023-05-01T05:31:11.578Z,101109.09
2023-05-01T05:34:17.733Z,101111.78
2023-05-01T05:37:24.508Z,101103.72
2023-05-01T05:40:31.356Z,101114.56
2023-05-01T05:43:37.548Z,101113.50
2023-05-01T05:46:45.154Z,101122.94
2023-05-01T05:49:55.788Z,101120.19
2023-05-01T05:53:01.429Z,101132.03
2023-05-01T05:56:07.266Z,101123.22
2023-05-01T05:59:12.835Z,101129.66
2023-05-01T06:02:19.128Z,101125.09
2023-05-01T06:05:25.050Z,101129.41
2023-05-01T06:08:31.027Z,101122.88
2023-05-01T06:11:36.795Z,101125.63
2023-05-01T06:14:41.977Z,101123.72
2023-05-01T06:17:47.615Z,101134.22
2023-05-01T06:20:53.466Z,101126.22
2023-05-01T06:23:59.267Z,101132.19
2023-05-01T06:27:08.579Z,101126.84
2023-05-01T06:30:14.078Z,101135.44
2023-05-01T06:33:20.830Z,101121.91
2023-05-01T06:36:37.878Z,101125.75
2023-05-01T06:39:43.342Z,101131.13
2023-05-01T06:42:48.932Z,101133.59
2023-05-01T06:45:54.384Z,101130.16
2023-05-01T06:48:59.848Z,101137.94
2023-05-01T06:52:05.758Z,101138.75
2023-05-01T06:55:12.739Z,101143.34
2023-05-01T06:58:24.080Z,101139.94
2023-05-01T07:01:32.126Z,101143.19
2023-05-01T07:04:38.160Z,101148.09
2023-05-01T07:07:50.434Z,101153.41
2023-05-01T07:11:03.849Z,101149.97
2023-05-01T07:14:09.537Z,101157.28
2023-05-01T07:17:14.953Z,101149.66
2023-05-01T07:20:20.003Z,101142.22
2023-05-01T07:23:25.825Z,101155.19
2023-05-01T07:26:31.080Z,101155.16
2023-05-01T07:29:39.274Z,101147.91
2023-05-01T07:32:45.422Z,101145.22
2023-05-01T07:35:50.748Z,101141.72
2023-05-01T07:38:58.058Z,101148.50
2023-05-01T07:42:04.141Z,101152.00
2023-05-01T07:45:10.121Z,101157.13
2023-05-01T07:48:15.645Z,101150.63
2023-05-01T07:51:21.487Z,101156.59
2023-05-01T07:54:27.124Z,101162.25
2023-05-01T07:57:35.829Z,101158.50
2023-05-01T08:00:41.560Z,101156.94
2023-05-01T08:03:49.396Z,101157.47
2023-05-01T08:06:56.488Z,101158.00
2023-05-01T08:10:02.592Z,101147.78
2023-05-01T08:13:08.162Z,101154.03
2023-05-01T08:16:13.521Z,101151.06
2023-05-01T08:19:18.544Z,101164.00
2023-05-01T08:22:24.339Z,101160.75
2023-05-01T08:25:31.834Z,101160.75
2023-05-01T08:28:37.986Z,101160.78
2023-05-01T08:31:44.135Z,101155.94
2023-05-01T08:34:50.005Z,101160.78
2023-05-01T08:37:55.617Z,101167.00
2023-05-01T08:41:03.808Z,101163.19
2023-05-01T08:44:11.060Z,101163.72
2023-05-01T08:47:18.424Z,101156.44
2023-05-01T08:50:25.290Z,101163.69
2023-05-01T08:53:33.670Z,101165.88
2023-05-01T08:56:39.720Z,101166.94
2023-05-01T08:59:47.294Z,101163.69
2023-05-01T09:02:52.931Z,101168.81
2023-05-01T09:06:00.239Z,101173.13
2023-05-01T09:09:05.927Z,101180.16
2023-05-01T09:12:26.402Z,101166.94
2023-05-01T09:15:33.045Z,101171.53
2023-05-01T09:18:41.273Z,101158.56
2023-05-01T09:21:46.775Z,101167.47
2023-05-01T09:24:52.065Z,101167.97
2023-05-01T09:27:57.474Z,101162.59
2023-05-01T09:31:21.739Z,101163.38
2023-05-01T09:34:27.129Z,101167.41
2023-05-01T09:37:34.185Z,101160.72
2023-05-01T09:40:39.644Z,101158.28
2023-05-01T09:43:53.470Z,101157.97
2023-05-01T09:46:59.010Z,101157.38
2023-05-01T09:50:04.823Z,101144.75
2023-05-01T09:53:11.579Z,101151.03
2023-05-01T09:56:18.339Z,101144.19
2023-05-01T09:59:24.237Z,101136.03
2023-05-01T10:02:32.700Z,101142.31
2023-05-01T10:05:44.793Z,101139.91
2023-05-01T10:08:51.207Z,101135.31
2023-05-01T10:11:57.962Z,101131.50
2023-05-01T10:15:17.382Z,101126.69
2023-05-01T10:18:31.102Z,101138.25
2023-05-01T10:21:37.275Z,101132.59
2023-05-01T10:24:46.412Z,101127.66
2023-05-01T10:27:53.356Z,101117.44
2023-05-01T10:30:59.356Z,101123.88
2023-05-01T10:34:05.008Z,101117.94
2023-05-01T10:37:15.040Z,101124.75
2023-05-01T10:40:48.297Z,101116.63
2023-05-01T10:44:20.557Z,101123.88
2023-05-01T10:47:27.926Z,101119.56
2023-05-01T10:50:35.016Z,101119.59
2023-05-01T10:53:43.690Z,101116.59
2023-05-01T10:56:49.460Z,101116.31
2023-05-01T11:00:02.397Z,101103.84
2023-05-01T11:03:22.849Z,101102.22
2023-05-01T11:06:28.650Z,101093.16
2023-05-01T11:09:39.884Z,101094.00
2023-05-01T11:12:52.736Z,101095.66
2023-05-01T11:15:57.883Z,101090.28
2023-05-01T11:19:03.750Z,101091.72
2023-05-01T11:22:13.824Z,101082.28
2023-05-01T11:25:22.893Z,101083.94
2023-05-01T11:28:31.323Z,101085.00
2023-05-01T11:31:37.501Z,101081.94
2023-05-01T11:34:43.102Z,101070.50
2023-05-01T11:37:49.147Z,101071.84
2023-05-01T11:40:57.749Z,101067.59
2023-05-01T11:44:03.138Z,101057.41
2023-05-01T11:47:09.430Z,101048.94
2023-05-01T11:50:14.990Z,101047.03
2023-05-01T11:53:21.048Z,101046.25
2023-05-01T11:56:27.680Z,101042.50
2023-05-01T11:59:33.646Z,101042.75
2023-05-01T12:02:39.703Z,101047.59
2023-05-01T12:05:45.802Z,101057.03
2023-05-01T12:08:53.425Z,101049.94
2023-05-01T12:12:01.239Z,101057.72
2023-05-01T12:15:07.534Z,101058.25
2023-05-01T12:18:14.456Z,101054.34
2023-05-01T12:21:20.134Z,101056.66
2023-05-01T12:24:25.690Z,101056.09
2023-05-01T12:27:32.237Z,101051.13
2023-05-01T12:30:38.615Z,101060.84
2023-05-01T12:33:53.723Z,101050.41
2023-05-01T12:36:59.435Z,101047.88
2023-05-01T12:40:05.672Z,101050.22
2023-05-01T12:43:10.918Z,101048.41
2023-05-01T12:46:17.110Z,101044.47
2023-05-01T12:49:24.263Z,101051.81
2023-05-01T12:52:29.825Z,101054.53
2023-05-01T12:55:57.086Z,101051.56
2023-05-01T12:59:02.196Z,101057.56
2023-05-01T13:02:11.102Z,101050.53
2023-05-01T13:05:16.639Z,101057.16
2023-05-01T13:08:38.723Z,101060.38
2023-05-01T13:11:59.764Z,101055.53
2023-05-01T13:15:05.948Z,101042.66
2023-05-01T13:18:11.758Z,101043.91
2023-05-01T13:21:23.231Z,101050.44
2023-05-01T13:24:47.250Z,101043.53
2023-05-01T13:27:53.523Z,101037.88
2023-05-01T13:30:59.352Z,101042.53
2023-05-01T13:34:04.953Z,101036.94
2023-05-01T13:37:14.708Z,101032.31
2023-05-01T13:40:21.566Z,101032.09
2023-05-01T13:43:27.190Z,101020.91
2023-05-01T13:46:33.072Z,101030.06
2023-05-01T13:49:42.150Z,101026.91
2023-05-01T13:52:47.925Z,101019.75
2023-05-01T13:55:53.434Z,101023.31
2023-05-01T13:59:01.535Z,101026.09
2023-05-01T14:02:19.691Z,101020.16
2023-05-01T14:05:29.481Z,101027.91
2023-05-01T14:08:35.068Z,101022.50
2023-05-01T14:11:48.827Z,101015.16
2023-05-01T14:14:54.075Z,101020.09
2023-05-01T14:18:07.853Z,101024.41
2023-05-01T14:21:16.623Z,101011.50
2023-05-01T14:24:22.648Z,101015.50
2023-05-01T14:27:28.287Z,101014.19
2023-05-01T14:30:38.799Z,101018.50
2023-05-01T14:33:44.624Z,101025.78
2023-05-01T14:36:50.751Z,101033.09
2023-05-01T14:40:11.941Z,101021.50
2023-05-01T14:43:20.662Z,101024.19
2023-05-01T14:46:32.187Z,101022.84
2023-05-01T14:49:38.102Z,101022.88
2023-05-01T14:52:43.441Z,101017.66
2023-05-01T14:55:51.676Z,101017.94
2023-05-01T14:58:57.363Z,101008.03
2023-05-01T15:02:02.869Z,101007.22
2023-05-01T15:05:08.682Z,101003.50
2023-05-01T15:08:13.627Z,101004.19
2023-05-01T15:11:21.022Z,101003.09
2023-05-01T15:14:27.177Z,101003.41
2023-05-01T15:17:32.766Z,101012.34
2023-05-01T15:20:38.502Z,101014.81
2023-05-01T15:23:45.573Z,101018.91
2023-05-01T15:26:51.129Z,101018.09
2023-05-01T15:29:58.152Z,101020.28
2023-05-01T15:33:04.443Z,101019.75
2023-05-01T15:36:10.132Z,101027.31
2023-05-01T15:39:15.610Z,101025.44
2023-05-01T15:42:20.954Z,101027.59
2023-05-01T15:45:26.700Z,101032.47
2023-05-01T15:48:33.741Z,101031.91
2023-05-01T15:51:39.403Z,101038.38
2023-05-01T15:54:47.866Z,101037.56
2023-05-01T15:57:53.163Z,101036.78
2023-05-01T16:00:58.862Z,101028.16
2023-05-01T16:04:05.123Z,101039.19
2023-05-01T16:07:10.993Z,101042.91
2023-05-01T16:10:17.146Z,101045.31
2023-05-01T16:13:22.591Z,101044.97
2023-05-01T16:16:29.076Z,101041.16
2023-05-01T16:19:36.887Z,101040.63
2023-05-01T16:22:46.035Z,101044.66
2023-05-01T16:25:51.196Z,101052.16
2023-05-01T16:29:00.579Z,101053.75
2023-05-01T16:32:06.281Z,101042.59
2023-05-01T16:35:18.655Z,101048.44
2023-05-01T16:38:24.156Z,101045.50
2023-05-01T16:41:29.627Z,101037.38
2023-05-01T16:44:36.778Z,101041.31
2023-05-01T16:47:42.284Z,101039.13
2023-05-01T16:50:47.811Z,101037.78
2023-05-01T16:53:53.042Z,101037.53
2023-05-01T16:56:59.407Z,101029.47
2023-05-01T17:00:05.755Z,101030.81
2023-05-01T17:03:11.654Z,101033.06
2023-05-01T17:06:17.513Z,101030.59
2023-05-01T17:09:23.122Z,101034.34
2023-05-01T17:12:33.739Z,101036.75
2023-05-01T17:15:39.257Z,101035.66
2023-05-01T17:18:44.466Z,101034.47
2023-05-01T17:21:50.257Z,101037.91
2023-05-01T17:24:55.819Z,101038.41
2023-05-01T17:28:01.600Z,101037.56
2023-05-01T17:31:07.153Z,101029.44
2023-05-01T17:34:12.693Z,101029.16
2023-05-01T17:37:18.216Z,101033.38
2023-05-01T17:40:24.550Z,101031.56
2023-05-01T17:43:30.034Z,101033.06
2023-05-01T17:46:39.187Z,101040.25
2023-05-01T17:49:44.846Z,101037.56
2023-05-01T17:52:50.237Z,101029.22
2023-05-01T17:55:56.624Z,101035.50
2023-05-01T17:59:02.357Z,101037.53
2023-05-01T18:02:08.309Z,101042.56
2023-05-01T18:05:13.785Z,101053.72
2023-05-01T18:08:19.471Z,101057.25
2023-05-01T18:11:26.355Z,101056.81
2023-05-01T18:14:32.308Z,101060.31
2023-05-01T18:17:37.776Z,101061.06
2023-05-01T18:20:43.172Z,101069.81
2023-05-01T18:23:52.003Z,101067.34
2023-05-01T18:26:57.884Z,101068.91
2023-05-01T18:30:03.358Z,101075.56
2023-05-01T18:33:09.416Z,101079.66
2023-05-01T18:36:15.036Z,101077.69
2023-05-01T18:39:24.963Z,101079.66
2023-05-01T18:42:30.937Z,101075.94
2023-05-01T18:45:36.689Z,101079.66
2023-05-01T18:48:45.632Z,101085.19
2023-05-01T18:51:52.276Z,101077.25
2023-05-01T18:54:58.086Z,101076.91
2023-05-01T18:58:03.910Z,101075.78
2023-05-01T19:01:12.064Z,101081.06
2023-05-01T19:04:19.522Z,101081.69
2023-05-01T19:07:28.314Z,101082.91
2023-05-01T19:10:35.949Z,101091.88
2023-05-01T19:13:43.536Z,101088.44
2023-05-01T19:16:50.075Z,101084.06
2023-05-01T19:19:55.807Z,101087.88
2023-05-01T19:23:01.353Z,101093.09
2023-05-01T19:26:08.187Z,101100.75
2023-05-01T19:29:15.576Z,101098.06
2023-05-01T19:32:21.599Z,101093.25
2023-05-01T19:35:27.185Z,101087.97
2023-05-01T19:38:33.784Z,101096.59
2023-05-01T19:41:39.689Z,101091.31
2023-05-01T19:44:45.154Z,101094.31
2023-05-01T19:47:50.951Z,101090.97
2023-05-01T19:50:56.853Z,101093.16
2023-05-01T19:54:04.729Z,101098.59
2023-05-01T19:57:10.768Z,101108.25
2023-05-01T20:00:17.249Z,101107.63
2023-05-01T20:03:22.845Z,101100.41
2023-05-01T20:06:28.549Z,101102.84
2023-05-01T20:09:34.003Z,101105.69
2023-05-01T20:12:39.538Z,101106.16
2023-05-01T20:15:44.734Z,101102.75
2023-05-01T20:18:50.050Z,101108.19
2023-05-01T20:21:56.303Z,101110.81
2023-05-01T20:25:01.728Z,101104.13
2023-05-01T20:28:09.210Z,101116.22
2023-05-01T20:31:15.061Z,101118.34
2023-05-01T20:34:21.023Z,101122.97
2023-05-01T20:37:27.103Z,101114.84
2023-05-01T20:40:33.693Z,101113.47
2023-05-01T20:43:39.651Z,101114.94
2023-05-01T20:46:45.179Z,101115.91
2023-05-01T20:49:50.958Z,101115.56
2023-05-01T20:52:56.981Z,101116.13
2023-05-01T20:56:02.939Z,101118.13
2023-05-01T20:59:08.513Z,101115.09
2023-05-01T21:02:17.709Z,101102.19
2023-05-01T21:05:23.714Z,101100.72
2023-05-01T21:08:29.803Z,101097.63
2023-05-01T21:11:39.143Z,101090.56
2023-05-01T21:14:44.566Z,101086.50
2023-05-01T21:17:50.457Z,101107.75
2023-05-01T21:20:56.314Z,101103.69
2023-05-01T21:24:02.071Z,101112.00
2023-05-01T21:27:08.225Z,101111.91
2023-05-01T21:30:17.794Z,101119.25
2023-05-01T21:33:23.390Z,101112.63
2023-05-01T21:36:29.126Z,101106.16
2023-05-01T21:39:34.485Z,101096.00
2023-05-01T21:42:40.346Z,101083.53
2023-05-01T21:45:45.733Z,101077.88
2023-05-01T21:48:51.760Z,101087.19
2023-05-01T21:52:02.511Z,101082.03
2023-05-01T21:55:12.429Z,101071.78
2023-05-01T21:58:18.058Z,101071.94
2023-05-01T22:01:24.836Z,101088.03
2023-05-01T22:04:31.870Z,101085.47
2023-05-01T22:07:41.961Z,101077.34
2023-05-01T22:10:49.367Z,101077.66
2023-05-01T22:13:55.121Z,101081.69
2023-05-01T22:17:00.690Z,101076.34
2023-05-01T22:20:07.735Z,101083.00
2023-05-01T22:23:14.672Z,101076.19
2023-05-01T22:26:20.633Z,101071.97
2023-05-01T22:29:26.238Z,101083.66
2023-05-01T22:32:31.874Z,101084.13
2023-05-01T22:35:37.198Z,101087.38
2023-05-01T22:38:42.429Z,101077.47
2023-05-01T22:41:47.667Z,101081.31
2023-05-01T22:44:52.797Z,101078.38
2023-05-01T22:47:58.277Z,101071.34
2023-05-01T22:51:04.093Z,101065.00
2023-05-01T22:54:09.528Z,101056.56
2023-05-01T22:57:15.372Z,101057.88
2023-05-01T23:00:22.410Z,101044.00
2023-05-01T23:03:27.702Z,101039.44
2023-05-01T23:06:33.372Z,101033.81
2023-05-01T23:09:39.016Z,101021.59
2023-05-01T23:12:46.213Z,101020.44
2023-05-01T23:15:52.622Z,101017.41
2023-05-01T23:18:58.397Z,101014.88
2023-05-01T23:22:14.300Z,101013.75
2023-05-01T23:25:25.285Z,101004.41
2023-05-01T23:28:31.006Z,100994.53
2023-05-01T23:31:36.629Z,100991.75
2023-05-01T23:34:43.742Z,100993.13
2023-05-01T23:37:49.557Z,100991.50
2023-05-01T23:40:55.676Z,100981.38
2023-05-01T23:44:01.299Z,100981.38
2023-05-01T23:47:07.153Z,100980.09
2023-05-01T23:50:13.239Z,100979.13
2023-05-01T23:53:18.611Z,100974.28
2023-05-01T23:56:24.413Z,100968.91
2023-05-01T23:59:30.292Z,100964.84
